createdAt,value
2023-05-09T00:05:19.758Z,33.47
2023-05-09T00:07:48.253Z,33.80
2023-05-09T00:10:17.145Z,34.65
2023-05-09T00:12:45.770Z,34.95
2023-05-09T00:15:15.337Z,34.38
2023-05-09T00:17:47.461Z,36.10
2023-05-09T00:20:15.629Z,35.17
2023-05-09T00:22:43.765Z,36.80
2023-05-09T00:25:15.505Z,38.85
2023-05-09T00:27:43.240Z,40.00
2023-05-09T00:30:11.518Z,38.10
2023-05-09T00:32:41.531Z,36.20
2023-05-09T00:35:10.283Z,34.30
2023-05-09T00:37:38.002Z,26.92
2023-05-09T00:40:06.883Z,25.70
2023-05-09T00:42:35.580Z,23.35
2023-05-09T00:45:06.858Z,25.10
2023-05-09T00:47:35.836Z,30.30
2023-05-09T00:50:03.818Z,31.42
2023-05-09T00:52:34.103Z,32.65
2023-05-09T00:55:03.127Z,33.03
2023-05-09T00:57:30.983Z,33.78
2023-05-09T00:59:58.578Z,34.00
2023-05-09T01:02:26.497Z,34.08
2023-05-09T01:04:54.464Z,34.65
2023-05-09T01:07:35.725Z,35.45
2023-05-09T01:10:05.812Z,36.05
2023-05-09T01:12:33.491Z,41.03
2023-05-09T01:15:02.319Z,39.35
2023-05-09T01:17:36.990Z,39.33
2023-05-09T01:20:28.879Z,39.22
2023-05-09T01:23:02.182Z,37.50
2023-05-09T01:25:52.060Z,37.72
2023-05-09T01:28:22.514Z,35.03
2023-05-09T01:30:52.635Z,38.97
2023-05-09T01:33:21.648Z,36.40
2023-05-09T01:35:53.055Z,37.92
2023-05-09T01:38:22.836Z,35.83
2023-05-09T01:40:53.032Z,37.55
2023-05-09T01:45:52.235Z,35.45
2023-05-09T01:48:21.788Z,37.60
2023-05-09T01:50:50.040Z,36.67
2023-05-09T01:53:19.302Z,37.50
2023-05-09T01:55:48.488Z,39.65
2023-05-09T01:58:17.163Z,39.92
2023-05-09T02:00:45.507Z,39.38
2023-05-09T02:03:13.092Z,39.15
2023-05-09T02:05:41.284Z,39.13
2023-05-09T02:08:09.656Z,38.55
2023-05-09T02:10:40.186Z,42.58
2023-05-09T02:13:08.163Z,40.45
2023-05-09T02:15:35.821Z,39.97
2023-05-09T02:18:03.658Z,42.00
2023-05-09T02:20:31.440Z,41.20
2023-05-09T02:23:02.041Z,38.90
2023-05-09T02:25:29.749Z,38.40
2023-05-09T02:27:59.683Z,37.78
2023-05-09T02:30:28.127Z,40.30
2023-05-09T02:33:02.048Z,40.70
2023-05-09T02:35:29.929Z,38.03
2023-05-09T02:37:58.700Z,40.53
2023-05-09T02:40:27.352Z,41.63
2023-05-09T02:42:54.982Z,41.60
2023-05-09T02:45:22.766Z,39.58
2023-05-09T02:47:50.863Z,42.50
2023-05-09T02:50:19.863Z,39.55
2023-05-09T02:52:52.251Z,38.55
2023-05-09T02:55:20.074Z,39.60
2023-05-09T02:57:52.018Z,37.58
2023-05-09T03:00:29.653Z,37.60
2023-05-09T03:02:59.013Z,38.70
2023-05-09T03:05:26.769Z,36.63
2023-05-09T03:07:54.466Z,38.10
2023-05-09T03:10:22.915Z,40.42
2023-05-09T03:12:50.806Z,41.92
2023-05-09T03:15:19.726Z,41.28
2023-05-09T03:17:49.148Z,39.85
2023-05-09T03:20:16.983Z,40.38
2023-05-09T03:22:44.598Z,39.17
2023-05-09T03:25:13.283Z,39.20
2023-05-09T03:27:41.326Z,40.40
2023-05-09T03:30:13.738Z,37.53
2023-05-09T03:32:43.339Z,37.33
2023-05-09T03:35:11.319Z,38.55
2023-05-09T03:37:38.883Z,35.22
2023-05-09T03:40:09.133Z,34.20
2023-05-09T03:42:44.689Z,34.78
2023-05-09T03:45:13.277Z,34.33
2023-05-09T03:47:42.291Z,33.80
2023-05-09T03:50:11.023Z,33.42
2023-05-09T03:52:39.004Z,34.42
2023-05-09T03:55:08.725Z,31.88
2023-05-09T03:57:37.719Z,33.53
2023-05-09T04:00:10.600Z,31.67
2023-05-09T04:02:41.628Z,32.38
2023-05-09T04:05:15.028Z,33.40
2023-05-09T04:07:44.438Z,33.67
2023-05-09T04:10:12.531Z,33.67
2023-05-09T04:12:40.697Z,33.40
2023-05-09T04:15:12.337Z,32.83
2023-05-09T04:17:40.851Z,32.75
2023-05-09T04:20:09.613Z,34.33
2023-05-09T04:22:37.424Z,35.03
2023-05-09T04:25:05.842Z,33.10
2023-05-09T04:27:33.431Z,33.45
2023-05-09T04:30:01.024Z,31.92
2023-05-09T04:32:28.859Z,32.42
2023-05-09T04:34:57.330Z,32.13
2023-05-09T04:37:31.772Z,32.22
2023-05-09T04:40:01.754Z,33.15
2023-05-09T04:42:38.806Z,31.60
2023-05-09T04:45:07.638Z,31.30
2023-05-09T04:47:35.607Z,31.35
2023-05-09T04:50:04.662Z,32.35
2023-05-09T04:52:34.965Z,30.92
2023-05-09T04:55:02.575Z,31.65
2023-05-09T04:57:35.391Z,32.78
2023-05-09T05:00:07.988Z,30.77
2023-05-09T05:02:37.056Z,31.95
2023-05-09T05:05:11.648Z,32.95
2023-05-09T05:07:43.148Z,32.08
2023-05-09T05:10:14.067Z,31.05
2023-05-09T05:12:48.967Z,31.90
2023-05-09T05:15:19.509Z,32.20
2023-05-09T05:17:50.028Z,32.40
2023-05-09T05:20:21.869Z,32.67
2023-05-09T05:22:50.916Z,32.45
2023-05-09T05:25:20.216Z,31.88
2023-05-09T05:27:50.534Z,30.48
2023-05-09T05:30:18.609Z,30.95
2023-05-09T05:32:47.650Z,30.10
2023-05-09T05:35:23.525Z,30.77
2023-05-09T05:37:53.793Z,31.58
2023-05-09T05:40:22.732Z,29.92
2023-05-09T05:42:52.138Z,28.70
2023-05-09T05:45:20.252Z,28.23
2023-05-09T05:47:51.673Z,27.35
2023-05-09T05:50:22.581Z,26.25
2023-05-09T05:55:22.905Z,25.88
2023-05-09T05:57:50.577Z,28.45
2023-05-09T06:00:27.186Z,27.30
2023-05-09T06:03:05.813Z,27.42
2023-05-09T06:05:47.896Z,26.55
2023-05-09T06:08:22.974Z,26.63
2023-05-09T06:10:51.574Z,26.05
2023-05-09T06:13:21.070Z,26.33
2023-05-09T06:16:18.595Z,26.95
2023-05-09T06:18:56.345Z,26.25
2023-05-09T06:21:36.034Z,26.05
2023-05-09T06:24:20.163Z,25.23
2023-05-09T06:27:08.837Z,25.77
2023-05-09T06:29:38.540Z,25.02
2023-05-09T06:32:09.693Z,26.50
2023-05-09T06:34:38.194Z,25.70
2023-05-09T06:37:23.396Z,25.02
2023-05-09T06:39:52.346Z,26.08
2023-05-09T06:42:26.591Z,24.92
2023-05-09T06:44:55.697Z,26.10
2023-05-09T06:47:24.756Z,23.90
2023-05-09T06:49:54.284Z,25.30
2023-05-09T06:52:30.316Z,23.55
2023-05-09T06:55:26.241Z,25.33
2023-05-09T07:00:27.240Z,25.65
2023-05-09T07:02:59.071Z,25.88
2023-05-09T07:05:27.487Z,25.13
2023-05-09T07:07:56.536Z,26.02
2023-05-09T07:10:24.500Z,25.52
2023-05-09T07:12:52.349Z,24.35
2023-05-09T07:15:32.416Z,23.90
2023-05-09T07:18:05.239Z,24.27
2023-05-09T07:20:33.112Z,22.65
2023-05-09T07:23:01.020Z,22.73
2023-05-09T07:25:29.335Z,23.50
2023-05-09T07:27:57.140Z,22.80
2023-05-09T07:30:25.450Z,23.70
2023-05-09T07:32:54.427Z,22.85
2023-05-09T07:35:22.494Z,22.42
2023-05-09T07:37:50.660Z,22.85
2023-05-09T07:40:21.959Z,22.38
2023-05-09T07:42:50.485Z,22.42
2023-05-09T07:45:22.010Z,21.88
2023-05-09T07:47:51.815Z,21.52
2023-05-09T07:50:20.030Z,21.30
2023-05-09T07:52:49.334Z,22.50
2023-05-09T07:55:18.968Z,22.45
2023-05-09T07:57:47.748Z,21.65
2023-05-09T08:00:17.708Z,20.67
2023-05-09T08:02:45.442Z,22.08
2023-05-09T08:05:15.020Z,22.23
2023-05-09T08:07:43.152Z,21.40
2023-05-09T08:10:13.802Z,20.15
2023-05-09T08:12:41.563Z,21.27
2023-05-09T08:15:09.877Z,21.65
2023-05-09T08:17:37.652Z,22.65
2023-05-09T08:20:06.120Z,19.70
2023-05-09T08:22:33.698Z,20.52
2023-05-09T08:25:01.670Z,20.45
2023-05-09T08:27:29.447Z,20.63
2023-05-09T08:29:58.216Z,20.75
2023-05-09T08:32:25.739Z,21.42
2023-05-09T08:34:53.372Z,20.70
2023-05-09T08:37:20.835Z,21.92
2023-05-09T08:39:53.134Z,20.67
2023-05-09T08:42:25.614Z,20.05
2023-05-09T08:44:54.090Z,19.60
2023-05-09T08:47:23.103Z,18.95
2023-05-09T08:49:51.809Z,17.48
2023-05-09T08:52:20.857Z,16.00
2023-05-09T08:54:51.678Z,13.52
2023-05-09T08:57:20.054Z,14.25
2023-05-09T08:59:49.591Z,13.35
2023-05-09T09:02:18.546Z,13.43
2023-05-09T09:04:50.077Z,12.85
2023-05-09T09:07:18.809Z,12.57
2023-05-09T09:09:49.525Z,12.25
2023-05-09T09:12:20.963Z,11.70
2023-05-09T09:14:54.332Z,12.18
2023-05-09T09:17:30.009Z,12.50
2023-05-09T09:20:03.145Z,11.23
2023-05-09T09:22:35.433Z,11.63
2023-05-09T09:25:03.540Z,11.63
2023-05-09T09:27:33.323Z,10.63
2023-05-09T09:30:08.081Z,10.05
2023-05-09T09:32:36.694Z,9.35
2023-05-09T09:35:08.595Z,9.05
2023-05-09T09:37:43.634Z,9.40
2023-05-09T09:40:12.640Z,8.30
2023-05-09T09:42:49.639Z,7.85
2023-05-09T09:45:22.604Z,7.78
2023-05-09T09:47:50.813Z,7.28
2023-05-09T09:50:20.583Z,6.53
2023-05-09T09:52:50.976Z,6.97
2023-05-09T09:55:19.796Z,7.43
2023-05-09T09:57:49.256Z,6.80
2023-05-09T10:00:18.943Z,7.00
2023-05-09T10:02:50.870Z,7.68
2023-05-09T10:05:22.251Z,6.78
2023-05-09T10:08:02.982Z,7.53
2023-05-09T10:10:31.998Z,8.13
2023-05-09T10:13:01.112Z,7.90
2023-05-09T10:15:35.659Z,8.98
2023-05-09T10:18:11.576Z,9.45
2023-05-09T10:20:41.298Z,8.85
2023-05-09T10:23:09.178Z,10.40
2023-05-09T10:25:36.823Z,10.00
2023-05-09T10:28:10.644Z,10.93
2023-05-09T10:30:52.052Z,10.30
2023-05-09T10:33:22.203Z,10.15
2023-05-09T10:35:51.254Z,7.85
2023-05-09T10:38:28.055Z,7.95
2023-05-09T10:40:56.696Z,8.45
2023-05-09T10:43:25.451Z,8.45
2023-05-09T10:45:53.853Z,9.15
2023-05-09T10:48:21.733Z,9.45
2023-05-09T10:50:50.404Z,10.25
2023-05-09T10:53:24.927Z,10.10
2023-05-09T10:55:55.834Z,10.02
2023-05-09T10:58:27.243Z,9.50
2023-05-09T11:00:57.247Z,9.05
2023-05-09T11:03:26.617Z,9.38
2023-05-09T11:05:59.179Z,10.10
2023-05-09T11:08:28.327Z,8.32
2023-05-09T11:10:57.134Z,7.65
2023-05-09T11:13:26.231Z,7.63
2023-05-09T11:15:59.666Z,7.68
2023-05-09T11:18:28.643Z,7.50
2023-05-09T11:20:57.023Z,7.50
2023-05-09T11:23:28.753Z,7.00
2023-05-09T11:26:05.181Z,4.90
2023-05-09T11:28:34.654Z,4.00
2023-05-09T11:31:12.565Z,3.67
2023-05-09T11:33:44.763Z,3.35
2023-05-09T11:36:29.442Z,3.72
2023-05-09T11:39:04.989Z,3.88
2023-05-09T11:41:39.753Z,4.85
2023-05-09T11:44:23.239Z,6.45
2023-05-09T11:46:55.423Z,4.82
2023-05-09T11:49:39.154Z,4.53
2023-05-09T11:52:06.799Z,4.70
2023-05-09T11:54:34.409Z,3.90
2023-05-09T11:57:02.029Z,3.92
2023-05-09T11:59:34.446Z,4.15
2023-05-09T12:02:08.262Z,4.38
2023-05-09T12:04:36.824Z,4.75
2023-05-09T12:07:04.739Z,4.60
2023-05-09T12:09:33.357Z,5.25
2023-05-09T12:12:01.597Z,5.82
2023-05-09T12:14:29.182Z,5.68
2023-05-09T12:16:57.201Z,6.47
2023-05-09T12:19:25.981Z,5.65
2023-05-09T12:21:58.617Z,5.65
2023-05-09T12:24:31.541Z,5.40
2023-05-09T12:27:00.260Z,5.53
2023-05-09T12:29:27.980Z,6.50
2023-05-09T12:31:56.156Z,5.68
2023-05-09T12:34:24.968Z,5.78
2023-05-09T12:36:53.663Z,5.93
2023-05-09T12:39:23.344Z,6.07
2023-05-09T12:42:01.064Z,6.10
2023-05-09T12:45:03.902Z,5.30
2023-05-09T12:47:19.914Z,5.70
2023-05-09T12:49:51.370Z,5.97
2023-05-09T12:52:20.610Z,6.13
2023-05-09T12:54:53.282Z,6.25
2023-05-09T12:57:25.790Z,6.47
2023-05-09T12:59:58.981Z,6.53
2023-05-09T13:02:30.515Z,6.65
2023-05-09T13:05:08.583Z,7.20
2023-05-09T13:07:43.416Z,6.75
2023-05-09T13:10:12.920Z,6.53
2023-05-09T13:12:45.135Z,7.22
2023-05-09T13:15:13.383Z,6.35
2023-05-09T13:17:41.502Z,5.82
2023-05-09T13:20:10.945Z,5.72
2023-05-09T13:22:38.936Z,4.60
2023-05-09T13:25:07.239Z,4.18
2023-05-09T13:27:41.205Z,4.43
2023-05-09T13:30:09.076Z,4.85
2023-05-09T13:32:37.010Z,5.55
2023-05-09T13:35:07.800Z,5.15
2023-05-09T13:37:36.047Z,5.38
2023-05-09T13:40:04.587Z,5.80
2023-05-09T13:42:32.667Z,5.50
2023-05-09T13:45:00.203Z,5.40
2023-05-09T13:47:28.238Z,6.38
2023-05-09T13:49:56.214Z,5.22
2023-05-09T13:52:24.522Z,4.60
2023-05-09T13:54:53.359Z,4.93
2023-05-09T13:57:23.925Z,3.95
2023-05-09T13:59:58.878Z,3.78
2023-05-09T14:02:27.186Z,3.67
2023-05-09T14:04:55.735Z,3.78
2023-05-09T14:07:23.424Z,3.78
2023-05-09T14:09:56.145Z,3.88
2023-05-09T14:12:29.646Z,3.80
2023-05-09T14:14:57.238Z,4.07
2023-05-09T14:17:24.931Z,3.92
2023-05-09T14:19:53.509Z,4.35
2023-05-09T14:22:22.239Z,4.40
2023-05-09T14:24:50.580Z,4.68
2023-05-09T14:27:19.551Z,5.07
2023-05-09T14:29:47.883Z,5.13
2023-05-09T14:32:18.108Z,4.95
2023-05-09T14:34:46.051Z,4.72
2023-05-09T14:37:15.239Z,4.78
2023-05-09T14:39:43.470Z,4.82
2023-05-09T14:42:13.034Z,5.40
2023-05-09T14:44:41.702Z,5.53
2023-05-09T14:47:10.258Z,5.32
2023-05-09T14:49:39.951Z,6.10
2023-05-09T14:52:07.746Z,5.72
2023-05-09T14:54:35.711Z,5.35
2023-05-09T14:57:05.170Z,5.25
2023-05-09T14:59:36.108Z,6.03
2023-05-09T15:02:05.588Z,5.60
2023-05-09T15:04:33.835Z,6.00
2023-05-09T15:07:02.392Z,5.75
2023-05-09T15:09:33.268Z,5.38
2023-05-09T15:12:01.071Z,5.95
2023-05-09T15:14:29.693Z,6.30
2023-05-09T15:17:03.422Z,6.35
2023-05-09T15:19:33.016Z,6.50
2023-05-09T15:22:05.652Z,5.93
2023-05-09T15:24:34.621Z,5.97
2023-05-09T15:27:02.732Z,6.20
2023-05-09T15:29:31.224Z,6.90
2023-05-09T15:32:05.926Z,6.13
2023-05-09T15:34:34.118Z,6.45
2023-05-09T15:37:02.715Z,6.05
2023-05-09T15:39:35.734Z,6.28
2023-05-09T15:42:05.648Z,5.70
2023-05-09T15:44:33.916Z,5.97
2023-05-09T15:47:01.720Z,6.32
2023-05-09T15:49:30.418Z,6.07
2023-05-09T15:51:59.428Z,5.75
2023-05-09T15:54:27.504Z,5.85
2023-05-09T15:56:55.095Z,6.00
2023-05-09T15:59:22.752Z,7.30
2023-05-09T16:01:51.129Z,8.18
2023-05-09T16:04:20.154Z,9.90
2023-05-09T16:06:50.059Z,10.63
2023-05-09T16:09:19.563Z,9.25
2023-05-09T16:11:48.864Z,11.90
2023-05-09T16:14:17.698Z,11.35
2023-05-09T16:16:48.738Z,8.90
2023-05-09T16:19:20.662Z,7.10
2023-05-09T16:21:53.828Z,7.88
2023-05-09T16:24:22.282Z,7.57
2023-05-09T16:26:50.172Z,7.10
2023-05-09T16:29:19.605Z,6.45
2023-05-09T16:31:50.570Z,6.53
2023-05-09T16:34:20.390Z,6.47
2023-05-09T16:36:49.873Z,6.50
2023-05-09T16:39:19.400Z,6.40
2023-05-09T16:41:49.749Z,6.43
2023-05-09T16:46:51.361Z,6.30
2023-05-09T16:49:20.186Z,6.25
2023-05-09T16:51:49.014Z,6.18
2023-05-09T16:54:20.105Z,6.25
2023-05-09T16:56:49.524Z,6.40
2023-05-09T16:59:23.565Z,6.57
2023-05-09T17:01:52.420Z,6.53
2023-05-09T17:04:20.723Z,6.22
2023-05-09T17:06:51.786Z,6.70
2023-05-09T17:09:20.597Z,6.97
2023-05-09T17:11:51.455Z,6.68
2023-05-09T17:14:20.635Z,6.60
2023-05-09T17:16:49.875Z,7.10
2023-05-09T17:19:19.069Z,7.30
2023-05-09T17:21:51.882Z,7.30
2023-05-09T17:24:19.989Z,6.50
2023-05-09T17:26:50.225Z,7.20
2023-05-09T17:29:20.756Z,6.85
2023-05-09T17:31:50.845Z,6.65
2023-05-09T17:34:20.434Z,7.18
2023-05-09T17:36:55.380Z,6.60
2023-05-09T17:39:23.170Z,6.55
2023-05-09T17:41:51.506Z,7.00
2023-05-09T17:44:19.518Z,6.68
2023-05-09T17:46:49.651Z,6.55
2023-05-09T17:49:19.119Z,6.40
2023-05-09T17:51:49.261Z,5.93
2023-05-09T17:54:19.057Z,7.03
2023-05-09T17:56:51.119Z,6.88
2023-05-09T17:59:19.737Z,6.90
2023-05-09T18:01:50.222Z,7.18
2023-05-09T18:04:19.292Z,7.07
2023-05-09T18:06:47.529Z,6.65
2023-05-09T18:09:15.340Z,7.20
2023-05-09T18:11:42.965Z,8.13
2023-05-09T18:14:11.331Z,7.65
2023-05-09T18:16:39.275Z,6.95
2023-05-09T18:19:07.309Z,7.55
2023-05-09T18:21:36.092Z,6.70
2023-05-09T18:24:04.229Z,7.03
2023-05-09T18:26:31.977Z,7.55
2023-05-09T18:29:00.149Z,8.23
2023-05-09T18:31:28.087Z,7.68
2023-05-09T18:33:56.505Z,7.85
2023-05-09T18:36:24.216Z,7.63
2023-05-09T18:38:52.965Z,8.20
2023-05-09T18:41:20.838Z,8.43
2023-05-09T18:43:49.836Z,7.88
2023-05-09T18:46:21.332Z,8.50
2023-05-09T18:48:53.848Z,8.63
2023-05-09T18:51:21.678Z,8.70
2023-05-09T18:53:49.934Z,8.65
2023-05-09T18:56:21.240Z,8.10
2023-05-09T18:58:52.945Z,7.95
2023-05-09T19:01:21.452Z,8.25
2023-05-09T19:03:54.254Z,8.25
2023-05-09T19:06:22.402Z,8.68
2023-05-09T19:08:50.072Z,7.78
2023-05-09T19:11:22.146Z,8.43
2023-05-09T19:13:50.403Z,9.20
2023-05-09T19:16:21.658Z,10.00
2023-05-09T19:18:49.789Z,9.93
2023-05-09T19:21:20.264Z,9.75
2023-05-09T19:26:19.479Z,10.32
2023-05-09T19:28:49.663Z,10.55
2023-05-09T19:31:19.142Z,10.65
2023-05-09T19:33:48.764Z,10.38
2023-05-09T19:36:18.331Z,10.10
2023-05-09T19:38:47.189Z,11.70
2023-05-09T19:41:15.208Z,10.85
2023-05-09T19:43:43.024Z,11.20
2023-05-09T19:46:10.680Z,10.88
2023-05-09T19:48:39.117Z,12.23
2023-05-09T19:51:09.027Z,11.68
2023-05-09T19:53:36.986Z,11.82
2023-05-09T19:56:04.477Z,12.25
2023-05-09T19:58:33.756Z,11.95
2023-05-09T20:01:02.610Z,12.68
2023-05-09T20:03:30.845Z,12.45
2023-05-09T20:05:58.648Z,12.65
2023-05-09T20:08:26.262Z,13.02
2023-05-09T20:10:54.610Z,13.10
2023-05-09T20:13:22.429Z,12.13
2023-05-09T20:15:50.605Z,14.00
2023-05-09T20:18:19.355Z,12.20
2023-05-09T20:20:47.525Z,13.18
2023-05-09T20:23:15.135Z,13.90
2023-05-09T20:25:42.967Z,13.27
2023-05-09T20:28:12.439Z,12.75
2023-05-09T20:30:40.612Z,13.55
2023-05-09T20:33:08.477Z,14.00
2023-05-09T20:35:39.595Z,14.20
2023-05-09T20:38:08.492Z,14.32
2023-05-09T20:40:37.098Z,14.90
2023-05-09T20:43:05.099Z,14.63
2023-05-09T20:45:32.808Z,14.63
2023-05-09T20:48:02.385Z,15.40
2023-05-09T20:50:31.050Z,15.63
2023-05-09T20:52:58.881Z,16.35
2023-05-09T20:55:26.669Z,16.33
2023-05-09T20:57:54.322Z,17.75
2023-05-09T21:00:21.909Z,17.38
2023-05-09T21:02:50.029Z,17.92
2023-05-09T21:05:20.627Z,18.83
2023-05-09T21:12:47.682Z,18.35
2023-05-09T21:15:15.763Z,20.45
2023-05-09T21:17:43.559Z,21.85
2023-05-09T21:20:11.455Z,22.00
2023-05-09T21:22:39.789Z,20.67
2023-05-09T21:25:08.201Z,19.20
2023-05-09T21:27:36.152Z,18.55
2023-05-09T21:30:04.518Z,17.75
2023-05-09T21:32:33.223Z,17.90
2023-05-09T21:35:08.875Z,16.65
2023-05-09T21:37:36.710Z,15.57
2023-05-09T21:40:05.848Z,14.73
2023-05-09T21:42:40.517Z,15.07
2023-05-09T21:45:09.990Z,15.25
2023-05-09T21:47:39.923Z,15.85
2023-05-09T21:50:08.589Z,16.35
2023-05-09T21:52:36.128Z,16.45
2023-05-09T21:55:04.069Z,16.65
2023-05-09T21:57:32.238Z,16.98
2023-05-09T22:00:02.386Z,17.83
2023-05-09T22:02:32.215Z,17.35
2023-05-09T22:05:00.392Z,19.45
2023-05-09T22:07:30.078Z,19.67
2023-05-09T22:09:57.920Z,21.60
2023-05-09T22:12:25.662Z,19.83
2023-05-09T22:14:56.771Z,21.17
2023-05-09T22:17:27.655Z,23.05
2023-05-09T22:22:23.159Z,21.65
2023-05-09T22:24:50.952Z,24.05
2023-05-09T22:27:19.370Z,23.85
2023-05-09T22:29:49.552Z,24.30
2023-05-09T22:32:18.563Z,25.75
2023-05-09T22:34:49.158Z,24.95
2023-05-09T22:37:17.719Z,26.27
2023-05-09T22:39:50.230Z,26.20
2023-05-09T22:42:21.456Z,24.48
2023-05-09T22:44:50.830Z,24.52
2023-05-09T22:47:21.423Z,25.00
2023-05-09T22:49:50.898Z,25.60
2023-05-09T22:52:20.233Z,25.63
2023-05-09T22:54:49.254Z,27.33
2023-05-09T22:57:19.864Z,26.52
2023-05-09T22:59:51.234Z,27.08
2023-05-09T23:02:19.645Z,27.70
2023-05-09T23:04:49.049Z,28.90
2023-05-09T23:07:17.588Z,27.83
2023-05-09T23:09:45.398Z,29.27
2023-05-09T23:12:13.369Z,29.73
2023-05-09T23:14:40.950Z,29.95
2023-05-09T23:17:10.064Z,32.55
2023-05-09T23:19:38.249Z,32.33
2023-05-09T23:22:06.185Z,31.40
2023-05-09T23:24:33.783Z,32.03
2023-05-09T23:27:03.093Z,34.35
2023-05-09T23:29:30.932Z,33.60
2023-05-09T23:31:58.832Z,35.28
2023-05-09T23:34:26.475Z,35.92
2023-05-09T23:36:54.236Z,35.95
2023-05-09T23:39:21.835Z,36.40
2023-05-09T23:41:51.041Z,35.00
2023-05-09T23:44:19.890Z,36.70
2023-05-09T23:46:51.376Z,37.33
2023-05-09T23:49:22.696Z,38.10
2023-05-09T23:51:52.803Z,36.35
2023-05-09T23:54:21.857Z,35.85
2023-05-09T23:56:50.236Z,37.00
2023-05-09T23:59:18.979Z,35.53
